sensor_id;sensor_type;location;lat;lon;timestamp;pressure;altitude;pressure_sealevel;temperature;humidity
82160;BME280;71734;50.876;7.372;2023-07-29T00:01:10;98359.53;;;17.72;88.74
82160;BME280;71734;50.876;7.372;2023-07-29T00:03:36;98350.91;;;17.79;88.52
82160;BME280;71734;50.876;7.372;2023-07-29T00:06:04;98354.16;;;17.72;88.85
82160;BME280;71734;50.876;7.372;2023-07-29T00:08:31;98350.38;;;17.63;89.21
82160;BME280;71734;50.876;7.372;2023-07-29T00:10:57;98344.91;;;17.64;89.43
82160;BME280;71734;50.876;7.372;2023-07-29T00:13:24;98342.94;;;17.67;89.23
82160;BME280;71734;50.876;7.372;2023-07-29T00:15:53;98344.44;;;17.82;88.33
82160;BME280;71734;50.876;7.372;2023-07-29T00:18:20;98342.75;;;17.81;88.74
82160;BME280;71734;50.876;7.372;2023-07-29T00:20:47;98344.69;;;17.79;88.97
82160;BME280;71734;50.876;7.372;2023-07-29T00:23:14;98339.56;;;17.76;88.96
82160;BME280;71734;50.876;7.372;2023-07-29T00:25:41;98338.09;;;17.72;89.13
82160;BME280;71734;50.876;7.372;2023-07-29T00:28:07;98334.94;;;17.78;88.74
82160;BME280;71734;50.876;7.372;2023-07-29T00:30:34;98331.78;;;17.84;88.40
82160;BME280;71734;50.876;7.372;2023-07-29T00:33:00;98333.50;;;17.85;88.17
82160;BME280;71734;50.876;7.372;2023-07-29T00:35:27;98331.91;;;17.82;88.59
82160;BME280;71734;50.876;7.372;2023-07-29T00:37:53;98332.25;;;17.78;88.95
82160;BME280;71734;50.876;7.372;2023-07-29T00:40:22;98326.75;;;17.68;89.09
82160;BME280;71734;50.876;7.372;2023-07-29T00:42:49;98326.63;;;17.70;88.95
82160;BME280;71734;50.876;7.372;2023-07-29T00:45:16;98332.25;;;17.78;89.11
82160;BME280;71734;50.876;7.372;2023-07-29T00:47:43;98333.59;;;17.83;89.16
82160;BME280;71734;50.876;7.372;2023-07-29T00:50:11;98326.44;;;17.84;88.41
82160;BME280;71734;50.876;7.372;2023-07-29T00:52:38;98328.13;;;17.85;88.41
82160;BME280;71734;50.876;7.372;2023-07-29T00:55:05;98322.63;;;17.86;88.79
82160;BME280;71734;50.876;7.372;2023-07-29T00:57:35;98320.81;;;17.87;88.49
82160;BME280;71734;50.876;7.372;2023-07-29T01:00:02;98321.69;;;17.98;88.06
82160;BME280;71734;50.876;7.372;2023-07-29T01:02:30;98313.03;;;17.95;87.77
82160;BME280;71734;50.876;7.372;2023-07-29T01:04:58;98315.00;;;17.93;88.02
82160;BME280;71734;50.876;7.372;2023-07-29T01:07:30;98308.00;;;17.79;88.48
82160;BME280;71734;50.876;7.372;2023-07-29T01:10:02;98317.88;;;17.79;88.34
82160;BME280;71734;50.876;7.372;2023-07-29T01:12:38;98302.28;;;17.73;88.89
82160;BME280;71734;50.876;7.372;2023-07-29T01:15:11;98299.88;;;17.81;88.57
82160;BME280;71734;50.876;7.372;2023-07-29T01:17:43;98309.13;;;17.77;88.72
82160;BME280;71734;50.876;7.372;2023-07-29T01:20:15;98300.56;;;17.72;89.05
82160;BME280;71734;50.876;7.372;2023-07-29T01:22:42;98305.06;;;17.71;88.78
82160;BME280;71734;50.876;7.372;2023-07-29T01:25:10;98297.50;;;17.65;89.15
82160;BME280;71734;50.876;7.372;2023-07-29T01:27:37;98289.69;;;17.62;89.23
82160;BME280;71734;50.876;7.372;2023-07-29T01:30:04;98287.88;;;17.62;89.22
82160;BME280;71734;50.876;7.372;2023-07-29T01:32:37;98287.16;;;17.60;89.46
82160;BME280;71734;50.876;7.372;2023-07-29T01:35:11;98281.06;;;17.58;89.75
82160;BME280;71734;50.876;7.372;2023-07-29T01:37:41;98290.81;;;17.71;89.19
82160;BME280;71734;50.876;7.372;2023-07-29T01:40:08;98286.91;;;17.63;89.68
82160;BME280;71734;50.876;7.372;2023-07-29T01:42:37;98281.56;;;17.63;89.57
82160;BME280;71734;50.876;7.372;2023-07-29T01:45:05;98290.56;;;17.74;89.14
82160;BME280;71734;50.876;7.372;2023-07-29T01:47:32;98284.75;;;17.69;89.40
82160;BME280;71734;50.876;7.372;2023-07-29T01:49:58;98292.28;;;17.63;89.69
82160;BME280;71734;50.876;7.372;2023-07-29T01:52:24;98285.56;;;17.69;89.39
82160;BME280;71734;50.876;7.372;2023-07-29T01:54:51;98286.78;;;17.65;89.86
82160;BME280;71734;50.876;7.372;2023-07-29T01:57:17;98281.56;;;17.63;89.73
82160;BME280;71734;50.876;7.372;2023-07-29T01:59:45;98283.13;;;17.66;89.96
82160;BME280;71734;50.876;7.372;2023-07-29T02:02:12;98272.31;;;17.68;89.80
82160;BME280;71734;50.876;7.372;2023-07-29T02:04:38;98278.63;;;17.67;89.47
82160;BME280;71734;50.876;7.372;2023-07-29T02:07:05;98285.34;;;17.72;89.23
82160;BME280;71734;50.876;7.372;2023-07-29T02:09:31;98279.72;;;17.64;89.80
82160;BME280;71734;50.876;7.372;2023-07-29T02:11:58;98275.09;;;17.66;89.45
82160;BME280;71734;50.876;7.372;2023-07-29T02:14:24;98255.00;;;17.60;89.90
82160;BME280;71734;50.876;7.372;2023-07-29T02:16:52;98253.44;;;17.80;88.95
82160;BME280;71734;50.876;7.372;2023-07-29T02:19:19;98261.09;;;17.74;88.94
82160;BME280;71734;50.876;7.372;2023-07-29T02:21:45;98238.69;;;17.63;89.61
82160;BME280;71734;50.876;7.372;2023-07-29T02:24:12;98249.91;;;17.69;89.49
82160;BME280;71734;50.876;7.372;2023-07-29T02:26:38;98246.44;;;17.55;90.25
82160;BME280;71734;50.876;7.372;2023-07-29T02:29:05;98240.56;;;17.50;90.18
82160;BME280;71734;50.876;7.372;2023-07-29T02:31:31;98237.63;;;17.53;90.65
82160;BME280;71734;50.876;7.372;2023-07-29T02:34:01;98243.00;;;17.53;90.47
82160;BME280;71734;50.876;7.372;2023-07-29T02:36:27;98246.22;;;17.58;90.27
82160;BME280;71734;50.876;7.372;2023-07-29T02:38:54;98230.41;;;17.67;89.79
82160;BME280;71734;50.876;7.372;2023-07-29T02:41:20;98231.22;;;17.56;90.59
82160;BME280;71734;50.876;7.372;2023-07-29T02:43:48;98232.72;;;17.60;90.28
82160;BME280;71734;50.876;7.372;2023-07-29T02:46:15;98236.09;;;17.62;89.96
82160;BME280;71734;50.876;7.372;2023-07-29T02:48:41;98244.41;;;17.70;89.60
82160;BME280;71734;50.876;7.372;2023-07-29T02:51:09;98244.28;;;17.60;90.41
82160;BME280;71734;50.876;7.372;2023-07-29T02:53:36;98244.28;;;17.60;90.45
82160;BME280;71734;50.876;7.372;2023-07-29T02:56:03;98251.13;;;17.64;90.63
82160;BME280;71734;50.876;7.372;2023-07-29T02:58:29;98265.72;;;17.72;90.34
82160;BME280;71734;50.876;7.372;2023-07-29T03:01:00;98268.78;;;17.78;90.31
82160;BME280;71734;50.876;7.372;2023-07-29T03:03:26;98262.09;;;17.84;89.70
82160;BME280;71734;50.876;7.372;2023-07-29T03:05:58;98261.13;;;17.96;89.17
82160;BME280;71734;50.876;7.372;2023-07-29T03:08:25;98247.59;;;17.86;89.35
82160;BME280;71734;50.876;7.372;2023-07-29T03:10:52;98237.22;;;17.82;89.33
82160;BME280;71734;50.876;7.372;2023-07-29T03:13:18;98240.91;;;17.81;89.44
82160;BME280;71734;50.876;7.372;2023-07-29T03:15:45;98240.66;;;17.84;89.04
82160;BME280;71734;50.876;7.372;2023-07-29T03:18:11;98244.78;;;17.88;89.39
82160;BME280;71734;50.876;7.372;2023-07-29T03:20:38;98254.56;;;17.89;89.45
82160;BME280;71734;50.876;7.372;2023-07-29T03:23:04;98259.91;;;17.89;89.49
82160;BME280;71734;50.876;7.372;2023-07-29T03:25:33;98254.06;;;17.84;89.61
82160;BME280;71734;50.876;7.372;2023-07-29T03:28:00;98243.59;;;17.81;89.66
82160;BME280;71734;50.876;7.372;2023-07-29T03:30:26;98241.38;;;17.86;89.87
82160;BME280;71734;50.876;7.372;2023-07-29T03:32:53;98241.38;;;17.86;89.70
82160;BME280;71734;50.876;7.372;2023-07-29T03:35:19;98237.00;;;17.85;89.36
82160;BME280;71734;50.876;7.372;2023-07-29T03:37:45;98231.88;;;17.82;89.57
82160;BME280;71734;50.876;7.372;2023-07-29T03:40:12;98242.34;;;17.74;90.19
82160;BME280;71734;50.876;7.372;2023-07-29T03:42:40;98262.34;;;17.81;89.51
82160;BME280;71734;50.876;7.372;2023-07-29T03:45:07;98257.09;;;17.68;90.05
82160;BME280;71734;50.876;7.372;2023-07-29T03:47:35;98264.53;;;17.76;89.42
82160;BME280;71734;50.876;7.372;2023-07-29T03:50:01;98278.63;;;17.78;89.22
82160;BME280;71734;50.876;7.372;2023-07-29T03:52:28;98273.78;;;17.83;88.76
82160;BME280;71734;50.876;7.372;2023-07-29T03:54:55;98275.25;;;17.76;89.53
82160;BME280;71734;50.876;7.372;2023-07-29T03:57:21;98275.25;;;17.76;88.86
82160;BME280;71734;50.876;7.372;2023-07-29T03:59:49;98270.13;;;17.73;89.21
82160;BME280;71734;50.876;7.372;2023-07-29T04:02:15;98267.81;;;17.68;89.15
82160;BME280;71734;50.876;7.372;2023-07-29T04:04:42;98281.81;;;17.60;89.91
82160;BME280;71734;50.876;7.372;2023-07-29T04:07:12;98278.13;;;17.61;89.39
82160;BME280;71734;50.876;7.372;2023-07-29T04:09:39;98278.13;;;17.61;89.10
82160;BME280;71734;50.876;7.372;2023-07-29T04:12:06;98289.59;;;17.63;89.39
82160;BME280;71734;50.876;7.372;2023-07-29T04:14:33;98271.09;;;17.60;89.14
82160;BME280;71734;50.876;7.372;2023-07-29T04:17:01;98261.31;;;17.59;89.65
82160;BME280;71734;50.876;7.372;2023-07-29T04:19:27;98276.56;;;17.70;88.93
82160;BME280;71734;50.876;7.372;2023-07-29T04:21:53;98268.16;;;17.63;88.63
82160;BME280;71734;50.876;7.372;2023-07-29T04:24:20;98257.69;;;17.72;88.17
82160;BME280;71734;50.876;7.372;2023-07-29T04:26:48;98265.22;;;17.67;88.47
82160;BME280;71734;50.876;7.372;2023-07-29T04:29:14;98270.34;;;17.58;88.99
82160;BME280;71734;50.876;7.372;2023-07-29T04:31:43;98263.97;;;17.48;89.10
82160;BME280;71734;50.876;7.372;2023-07-29T04:34:11;98260.25;;;17.38;89.68
82160;BME280;71734;50.876;7.372;2023-07-29T04:36:37;98257.47;;;17.40;89.27
82160;BME280;71734;50.876;7.372;2023-07-29T04:39:04;98260.97;;;17.40;89.12
82160;BME280;71734;50.876;7.372;2023-07-29T04:41:30;98260.25;;;17.38;89.55
82160;BME280;71734;50.876;7.372;2023-07-29T04:43:57;98263.63;;;17.29;89.29
82160;BME280;71734;50.876;7.372;2023-07-29T04:46:23;98257.59;;;17.38;89.00
82160;BME280;71734;50.876;7.372;2023-07-29T04:48:50;98261.97;;;17.39;88.68
82160;BME280;71734;50.876;7.372;2023-07-29T04:51:17;98262.94;;;17.38;89.35
82160;BME280;71734;50.876;7.372;2023-07-29T04:53:44;98258.31;;;17.40;89.31
82160;BME280;71734;50.876;7.372;2023-07-29T04:56:11;98255.34;;;17.32;89.24
82160;BME280;71734;50.876;7.372;2023-07-29T04:58:37;98275.38;;;17.39;89.25
82160;BME280;71734;50.876;7.372;2023-07-29T05:01:04;98280.84;;;17.49;88.80
82160;BME280;71734;50.876;7.372;2023-07-29T05:03:31;98276.25;;;17.51;88.49
82160;BME280;71734;50.876;7.372;2023-07-29T05:05:58;98280.75;;;17.50;88.49
82160;BME280;71734;50.876;7.372;2023-07-29T05:08:26;98284.91;;;17.54;88.35
82160;BME280;71734;50.876;7.372;2023-07-29T05:10:53;98282.00;;;17.57;88.64
82160;BME280;71734;50.876;7.372;2023-07-29T05:13:20;98293.47;;;17.59;87.69
82160;BME280;71734;50.876;7.372;2023-07-29T05:15:47;98292.91;;;17.43;88.77
82160;BME280;71734;50.876;7.372;2023-07-29T05:18:14;98285.09;;;17.40;89.20
82160;BME280;71734;50.876;7.372;2023-07-29T05:20:41;98300.47;;;17.49;89.30
82160;BME280;71734;50.876;7.372;2023-07-29T05:23:07;98297.44;;;17.54;89.59
82160;BME280;71734;50.876;7.372;2023-07-29T05:25:35;98297.03;;;17.60;88.28
82160;BME280;71734;50.876;7.372;2023-07-29T05:28:02;98287.16;;;17.60;88.31
82160;BME280;71734;50.876;7.372;2023-07-29T05:30:29;98294.91;;;17.52;88.80
82160;BME280;71734;50.876;7.372;2023-07-29T05:32:57;98302.69;;;17.55;88.75
82160;BME280;71734;50.876;7.372;2023-07-29T05:35:23;98316.09;;;17.55;88.10
82160;BME280;71734;50.876;7.372;2023-07-29T05:37:50;98306.97;;;17.58;88.51
82160;BME280;71734;50.876;7.372;2023-07-29T05:40:17;98316.75;;;17.59;88.79
82160;BME280;71734;50.876;7.372;2023-07-29T05:42:45;98301.09;;;17.53;88.39
82160;BME280;71734;50.876;7.372;2023-07-29T05:45:13;98306.75;;;17.61;88.11
82160;BME280;71734;50.876;7.372;2023-07-29T05:47:39;98303.00;;;17.63;89.10
82160;BME280;71734;50.876;7.372;2023-07-29T05:50:06;98309.81;;;17.68;88.83
82160;BME280;71734;50.876;7.372;2023-07-29T05:52:33;98327.13;;;17.75;89.13
82160;BME280;71734;50.876;7.372;2023-07-29T05:55:00;98328.84;;;17.76;88.24
82160;BME280;71734;50.876;7.372;2023-07-29T05:57:28;98322.88;;;17.83;88.92
82160;BME280;71734;50.876;7.372;2023-07-29T05:59:56;98327.66;;;17.91;88.68
82160;BME280;71734;50.876;7.372;2023-07-29T06:02:23;98327.66;;;17.91;88.39
82160;BME280;71734;50.876;7.372;2023-07-29T06:04:49;98314.34;;;17.89;88.33
82160;BME280;71734;50.876;7.372;2023-07-29T06:07:16;98317.16;;;17.88;88.01
82160;BME280;71734;50.876;7.372;2023-07-29T06:09:43;98321.31;;;17.92;88.12
82160;BME280;71734;50.876;7.372;2023-07-29T06:12:09;98315.09;;;17.91;87.33
82160;BME280;71734;50.876;7.372;2023-07-29T06:14:36;98320.44;;;17.80;86.78
82160;BME280;71734;50.876;7.372;2023-07-29T06:17:04;98329.59;;;17.89;87.53
82160;BME280;71734;50.876;7.372;2023-07-29T06:19:32;98327.66;;;17.91;87.10
82160;BME280;71734;50.876;7.372;2023-07-29T06:21:58;98327.41;;;17.94;86.87
82160;BME280;71734;50.876;7.372;2023-07-29T06:24:26;98342.28;;;17.98;87.74
82160;BME280;71734;50.876;7.372;2023-07-29T06:26:53;98346.78;;;17.97;88.05
82160;BME280;71734;50.876;7.372;2023-07-29T06:29:19;98351.75;;;17.80;88.30
82160;BME280;71734;50.876;7.372;2023-07-29T06:31:46;98341.16;;;17.89;87.93
82160;BME280;71734;50.876;7.372;2023-07-29T06:34:14;98362.59;;;17.89;88.14
82160;BME280;71734;50.876;7.372;2023-07-29T06:36:40;98361.66;;;18.01;88.21
82160;BME280;71734;50.876;7.372;2023-07-29T06:39:07;98365.69;;;18.07;87.74
82160;BME280;71734;50.876;7.372;2023-07-29T06:41:33;98364.38;;;18.13;87.74
82160;BME280;71734;50.876;7.372;2023-07-29T06:43:59;98370.25;;;18.18;87.63
82160;BME280;71734;50.876;7.372;2023-07-29T06:46:26;98359.38;;;18.19;87.99
82160;BME280;71734;50.876;7.372;2023-07-29T06:48:53;98375.97;;;18.24;87.95
82160;BME280;71734;50.876;7.372;2023-07-29T06:51:21;98366.22;;;18.23;87.81
82160;BME280;71734;50.876;7.372;2023-07-29T06:53:47;98369.13;;;18.31;86.93
82160;BME280;71734;50.876;7.372;2023-07-29T06:56:14;98368.66;;;18.37;87.33
82160;BME280;71734;50.876;7.372;2023-07-29T06:58:40;98372.22;;;18.49;85.92
82160;BME280;71734;50.876;7.372;2023-07-29T07:01:07;98366.34;;;18.44;84.96
82160;BME280;71734;50.876;7.372;2023-07-29T07:03:35;98373.28;;;18.46;85.48
82160;BME280;71734;50.876;7.372;2023-07-29T07:06:01;98371.22;;;18.39;85.10
82160;BME280;71734;50.876;7.372;2023-07-29T07:08:30;98365.75;;;18.40;85.06
82160;BME280;71734;50.876;7.372;2023-07-29T07:10:57;98367.44;;;18.30;85.70
82160;BME280;71734;50.876;7.372;2023-07-29T07:13:33;98371.81;;;18.31;85.47
82160;BME280;71734;50.876;7.372;2023-07-29T07:15:59;98381.09;;;18.27;84.92
82160;BME280;71734;50.876;7.372;2023-07-29T07:18:29;98378.66;;;18.24;85.14
82160;BME280;71734;50.876;7.372;2023-07-29T07:20:56;98384.78;;;18.37;85.52
82160;BME280;71734;50.876;7.372;2023-07-29T07:23:22;98382.81;;;18.39;85.26
82160;BME280;71734;50.876;7.372;2023-07-29T07:25:50;98375.78;;;18.61;84.84
82160;BME280;71734;50.876;7.372;2023-07-29T07:28:17;98370.88;;;18.77;84.63
82160;BME280;71734;50.876;7.372;2023-07-29T07:30:43;98381.88;;;18.74;83.75
82160;BME280;71734;50.876;7.372;2023-07-29T07:33:10;98384.78;;;18.71;81.75
82160;BME280;71734;50.876;7.372;2023-07-29T07:35:36;98389.31;;;18.81;83.82
82160;BME280;71734;50.876;7.372;2023-07-29T07:38:03;98385.75;;;18.81;84.71
82160;BME280;71734;50.876;7.372;2023-07-29T07:40:33;98396.50;;;18.81;83.76
82160;BME280;71734;50.876;7.372;2023-07-29T07:43:01;98391.75;;;18.73;84.15
82160;BME280;71734;50.876;7.372;2023-07-29T07:45:27;98392.13;;;18.91;82.65
82160;BME280;71734;50.876;7.372;2023-07-29T07:47:54;98406.03;;;18.85;83.63
82160;BME280;71734;50.876;7.372;2023-07-29T07:50:21;98392.84;;;18.82;82.94
82160;BME280;71734;50.876;7.372;2023-07-29T07:52:49;98382.09;;;18.71;83.11
82160;BME280;71734;50.876;7.372;2023-07-29T07:55:15;98387.47;;;18.71;83.42
82160;BME280;71734;50.876;7.372;2023-07-29T07:57:42;98386.63;;;18.59;82.17
82160;BME280;71734;50.876;7.372;2023-07-29T08:00:11;98394.19;;;18.65;83.08
82160;BME280;71734;50.876;7.372;2023-07-29T08:02:37;98390.06;;;18.61;83.32
82160;BME280;71734;50.876;7.372;2023-07-29T08:05:04;98396.53;;;18.70;82.97
82160;BME280;71734;50.876;7.372;2023-07-29T08:07:31;98395.16;;;18.75;82.96
82160;BME280;71734;50.876;7.372;2023-07-29T08:09:57;98399.19;;;18.81;82.51
82160;BME280;71734;50.876;7.372;2023-07-29T08:12:24;98397.72;;;18.88;83.09
82160;BME280;71734;50.876;7.372;2023-07-29T08:14:50;98399.66;;;18.97;83.36
82160;BME280;71734;50.876;7.372;2023-07-29T08:17:18;98387.91;;;19.09;83.11
82160;BME280;71734;50.876;7.372;2023-07-29T08:19:44;98384.19;;;19.32;82.39
82160;BME280;71734;50.876;7.372;2023-07-29T08:22:11;98388.34;;;19.47;81.82
82160;BME280;71734;50.876;7.372;2023-07-29T08:24:37;98392.59;;;19.82;80.58
82160;BME280;71734;50.876;7.372;2023-07-29T08:27:05;98385.84;;;19.87;80.64
82160;BME280;71734;50.876;7.372;2023-07-29T08:29:31;98393.44;;;19.82;79.51
82160;BME280;71734;50.876;7.372;2023-07-29T08:31:58;98399.09;;;19.79;78.87
82160;BME280;71734;50.876;7.372;2023-07-29T08:34:26;98403.44;;;19.60;78.26
82160;BME280;71734;50.876;7.372;2023-07-29T08:36:52;98407.59;;;19.53;80.16
82160;BME280;71734;50.876;7.372;2023-07-29T08:39:19;98406.34;;;19.68;80.37
82160;BME280;71734;50.876;7.372;2023-07-29T08:41:50;98411.13;;;19.64;79.91
82160;BME280;71734;50.876;7.372;2023-07-29T08:44:21;98411.03;;;19.55;79.39
82160;BME280;71734;50.876;7.372;2023-07-29T08:46:48;98424.00;;;19.81;78.16
82160;BME280;71734;50.876;7.372;2023-07-29T08:49:18;98419.06;;;20.39;76.05
82160;BME280;71734;50.876;7.372;2023-07-29T08:51:46;98411.00;;;20.39;74.43
82160;BME280;71734;50.876;7.372;2023-07-29T08:54:14;98411.72;;;20.41;75.43
82160;BME280;71734;50.876;7.372;2023-07-29T08:56:41;98413.84;;;20.26;76.26
82160;BME280;71734;50.876;7.372;2023-07-29T08:59:10;98413.38;;;20.32;75.23
82160;BME280;71734;50.876;7.372;2023-07-29T09:01:37;98422.94;;;20.25;75.11
82160;BME280;71734;50.876;7.372;2023-07-29T09:04:04;98408.22;;;19.88;74.12
82160;BME280;71734;50.876;7.372;2023-07-29T09:06:31;98409.72;;;20.02;76.96
82160;BME280;71734;50.876;7.372;2023-07-29T09:09:01;98417.59;;;19.93;76.69
82160;BME280;71734;50.876;7.372;2023-07-29T09:11:28;98412.75;;;19.87;77.43
82160;BME280;71734;50.876;7.372;2023-07-29T09:13:55;98414.38;;;19.79;77.88
82160;BME280;71734;50.876;7.372;2023-07-29T09:16:22;98420.81;;;19.56;73.81
82160;BME280;71734;50.876;7.372;2023-07-29T09:18:48;98422.19;;;19.39;75.98
82160;BME280;71734;50.876;7.372;2023-07-29T09:21:23;98423.56;;;19.22;77.44
82160;BME280;71734;50.876;7.372;2023-07-29T09:23:51;98427.56;;;19.28;77.74
82160;BME280;71734;50.876;7.372;2023-07-29T09:26:23;98426.28;;;19.11;79.15
82160;BME280;71734;50.876;7.372;2023-07-29T09:28:52;98424.78;;;18.96;78.25
82160;BME280;71734;50.876;7.372;2023-07-29T09:31:21;98425.78;;;19.06;78.71
82160;BME280;71734;50.876;7.372;2023-07-29T09:33:47;98426.25;;;19.00;78.31
82160;BME280;71734;50.876;7.372;2023-07-29T09:36:14;98422.13;;;18.96;77.13
82160;BME280;71734;50.876;7.372;2023-07-29T09:38:40;98419.94;;;18.90;76.56
82160;BME280;71734;50.876;7.372;2023-07-29T09:41:07;98424.03;;;19.16;77.88
82160;BME280;71734;50.876;7.372;2023-07-29T09:43:36;98428.44;;;19.17;78.20
82160;BME280;71734;50.876;7.372;2023-07-29T09:46:04;98433.84;;;19.06;75.52
82160;BME280;71734;50.876;7.372;2023-07-29T09:48:32;98435.31;;;18.99;76.47
82160;BME280;71734;50.876;7.372;2023-07-29T09:50:59;98434.28;;;19.33;77.95
82160;BME280;71734;50.876;7.372;2023-07-29T09:53:26;98427.56;;;19.28;75.53
82160;BME280;71734;50.876;7.372;2023-07-29T09:55:53;98433.56;;;19.20;75.32
82160;BME280;71734;50.876;7.372;2023-07-29T09:58:26;98439.53;;;19.24;76.92
82160;BME280;71734;50.876;7.372;2023-07-29T10:00:54;98430.81;;;19.54;75.40
82160;BME280;71734;50.876;7.372;2023-07-29T10:03:21;98432.28;;;19.58;79.20
82160;BME280;71734;50.876;7.372;2023-07-29T10:05:48;98440.06;;;19.72;77.07
82160;BME280;71734;50.876;7.372;2023-07-29T10:08:16;98451.78;;;19.71;75.65
82160;BME280;71734;50.876;7.372;2023-07-29T10:10:43;98442.53;;;19.64;75.19
82160;BME280;71734;50.876;7.372;2023-07-29T10:13:10;98438.31;;;19.39;74.94
82160;BME280;71734;50.876;7.372;2023-07-29T10:15:37;98445.53;;;19.27;74.95
82160;BME280;71734;50.876;7.372;2023-07-29T10:18:06;98450.66;;;19.30;77.01
82160;BME280;71734;50.876;7.372;2023-07-29T10:20:34;98448.47;;;19.13;75.66
82160;BME280;71734;50.876;7.372;2023-07-29T10:28:37;98450.38;;;19.44;76.42
82160;BME280;71734;50.876;7.372;2023-07-29T10:31:22;98451.38;;;19.32;73.55
82160;BME280;71734;50.876;7.372;2023-07-29T10:34:10;98444.75;;;19.36;73.18
82160;BME280;71734;50.876;7.372;2023-07-29T10:36:37;98432.28;;;19.58;74.15
82160;BME280;71734;50.876;7.372;2023-07-29T10:39:06;98445.50;;;19.38;72.35
82160;BME280;71734;50.876;7.372;2023-07-29T10:41:59;98446.31;;;19.61;73.90
82160;BME280;71734;50.876;7.372;2023-07-29T10:44:50;98457.75;;;19.74;74.18
82160;BME280;71734;50.876;7.372;2023-07-29T10:47:37;98446.69;;;19.68;73.88
82160;BME280;71734;50.876;7.372;2023-07-29T10:50:26;98445.09;;;19.65;73.64
82160;BME280;71734;50.876;7.372;2023-07-29T10:52:59;98438.66;;;19.45;73.23
82160;BME280;71734;50.876;7.372;2023-07-29T10:58:52;98443.78;;;19.60;76.52
82160;BME280;71734;50.876;7.372;2023-07-29T11:16:14;98447.75;;;19.00;78.01
82160;BME280;71734;50.876;7.372;2023-07-29T11:18:47;98451.56;;;18.86;77.24
82160;BME280;71734;50.876;7.372;2023-07-29T11:21:14;98453.25;;;18.98;78.79
82160;BME280;71734;50.876;7.372;2023-07-29T11:23:43;98456.81;;;18.99;78.11
82160;BME280;71734;50.876;7.372;2023-07-29T11:26:10;98451.91;;;18.93;76.72
82160;BME280;71734;50.876;7.372;2023-07-29T11:28:40;98452.91;;;19.03;77.71
82160;BME280;71734;50.876;7.372;2023-07-29T11:31:06;98458.09;;;19.16;77.24
82160;BME280;71734;50.876;7.372;2023-07-29T11:33:35;98444.41;;;19.30;77.83
82160;BME280;71734;50.876;7.372;2023-07-29T11:36:04;98457.75;;;19.42;79.22
82160;BME280;71734;50.876;7.372;2023-07-29T11:38:31;98450.84;;;19.61;77.33
82160;BME280;71734;50.876;7.372;2023-07-29T11:41:02;98451.41;;;19.43;76.50
82160;BME280;71734;50.876;7.372;2023-07-29T11:43:29;98446.63;;;19.47;76.50
82160;BME280;71734;50.876;7.372;2023-07-29T11:46:00;98440.88;;;19.52;76.75
82160;BME280;71734;50.876;7.372;2023-07-29T11:48:28;98440.59;;;19.55;77.43
82160;BME280;71734;50.876;7.372;2023-07-29T11:50:55;98453.53;;;19.61;78.16
82160;BME280;71734;50.876;7.372;2023-07-29T11:53:27;98444.53;;;19.39;75.40
82160;BME280;71734;50.876;7.372;2023-07-29T11:55:54;98435.63;;;19.28;77.03
82160;BME280;71734;50.876;7.372;2023-07-29T11:58:21;98427.16;;;19.55;76.13
82160;BME280;71734;50.876;7.372;2023-07-29T12:00:48;98429.31;;;19.72;75.08
82160;BME280;71734;50.876;7.372;2023-07-29T12:03:16;98428.94;;;19.97;76.04
82160;BME280;71734;50.876;7.372;2023-07-29T12:05:44;98433.56;;;19.74;75.59
82160;BME280;71734;50.876;7.372;2023-07-29T12:08:12;98436.34;;;19.84;75.57
82160;BME280;71734;50.876;7.372;2023-07-29T12:10:39;98443.03;;;19.89;74.76
82160;BME280;71734;50.876;7.372;2023-07-29T12:13:07;98427.53;;;19.82;74.68
82160;BME280;71734;50.876;7.372;2023-07-29T12:15:34;98436.19;;;20.17;75.37
82160;BME280;71734;50.876;7.372;2023-07-29T12:18:01;98436.97;;;20.08;74.18
82160;BME280;71734;50.876;7.372;2023-07-29T12:20:29;98421.44;;;20.32;72.55
82160;BME280;71734;50.876;7.372;2023-07-29T12:22:57;98419.13;;;20.79;72.27
82160;BME280;71734;50.876;7.372;2023-07-29T12:25:26;98431.66;;;20.59;72.49
82160;BME280;71734;50.876;7.372;2023-07-29T12:27:52;98419.50;;;20.23;71.77
82160;BME280;71734;50.876;7.372;2023-07-29T12:30:22;98426.13;;;20.19;71.30
82160;BME280;71734;50.876;7.372;2023-07-29T12:32:50;98427.84;;;20.62;73.83
82160;BME280;71734;50.876;7.372;2023-07-29T12:35:16;98411.66;;;20.82;73.65
82160;BME280;71734;50.876;7.372;2023-07-29T12:37:43;98415.47;;;21.20;71.72
82160;BME280;71734;50.876;7.372;2023-07-29T12:40:23;98409.19;;;21.10;71.57
82160;BME280;71734;50.876;7.372;2023-07-29T12:42:51;98409.09;;;21.21;69.79
82160;BME280;71734;50.876;7.372;2023-07-29T12:45:18;98402.78;;;21.70;67.88
82160;BME280;71734;50.876;7.372;2023-07-29T12:47:48;98406.63;;;21.58;68.62
82160;BME280;71734;50.876;7.372;2023-07-29T12:50:14;98404.22;;;21.55;67.92
82160;BME280;71734;50.876;7.372;2023-07-29T12:52:41;98400.78;;;21.33;67.50
82160;BME280;71734;50.876;7.372;2023-07-29T12:55:08;98413.59;;;21.70;67.09
82160;BME280;71734;50.876;7.372;2023-07-29T12:57:39;98409.91;;;21.71;65.33
82160;BME280;71734;50.876;7.372;2023-07-29T13:00:08;98403.94;;;22.25;65.61
82160;BME280;71734;50.876;7.372;2023-07-29T13:02:35;98405.84;;;22.61;65.73
82160;BME280;71734;50.876;7.372;2023-07-29T13:05:02;98401.69;;;22.67;64.68
82160;BME280;71734;50.876;7.372;2023-07-29T13:07:28;98392.72;;;22.20;66.43
82160;BME280;71734;50.876;7.372;2023-07-29T13:09:55;98392.00;;;21.70;66.88
82160;BME280;71734;50.876;7.372;2023-07-29T13:12:22;98395.13;;;21.56;66.06
82160;BME280;71734;50.876;7.372;2023-07-29T13:14:48;98405.63;;;21.49;67.58
82160;BME280;71734;50.876;7.372;2023-07-29T13:17:16;98408.03;;;21.43;68.58
82160;BME280;71734;50.876;7.372;2023-07-29T13:19:43;98411.84;;;21.40;66.17
82160;BME280;71734;50.876;7.372;2023-07-29T13:22:10;98413.44;;;21.03;67.15
82160;BME280;71734;50.876;7.372;2023-07-29T13:24:36;98404.16;;;20.96;69.17
82160;BME280;71734;50.876;7.372;2023-07-29T13:27:03;98411.97;;;20.89;69.58